createdAt,value
2023-06-14T00:00:19.849Z,9.26
2023-06-14T00:11:19.322Z,9.43
2023-06-14T00:21:44.804Z,9.50
2023-06-14T00:32:10.008Z,9.49
2023-06-14T00:42:34.193Z,9.31
2023-06-14T00:52:59.360Z,9.11
2023-06-14T01:03:24.369Z,8.94
2023-06-14T01:13:48.875Z,8.90
2023-06-14T01:24:13.696Z,8.82
2023-06-14T01:34:37.961Z,8.55
2023-06-14T01:45:02.787Z,7.93
2023-06-14T01:55:27.305Z,8.02
2023-06-14T02:05:51.526Z,8.01
2023-06-14T02:16:16.024Z,8.03
2023-06-14T02:26:42.775Z,7.83
2023-06-14T02:37:07.308Z,7.59
2023-06-14T02:47:31.401Z,7.58
2023-06-14T02:57:55.994Z,7.57
2023-06-14T03:08:20.758Z,7.41
2023-06-14T03:18:45.441Z,7.59
2023-06-14T03:29:11.094Z,7.84
2023-06-14T03:39:36.203Z,7.97
2023-06-14T03:50:00.181Z,8.53
2023-06-14T04:00:24.826Z,9.12
2023-06-14T04:10:49.518Z,9.63
2023-06-14T04:21:13.581Z,10.14
2023-06-14T04:31:39.274Z,10.38
2023-06-14T04:42:06.240Z,10.40
2023-06-14T04:52:33.013Z,11.18
2023-06-14T05:02:58.632Z,11.82
2023-06-14T05:13:24.709Z,12.44
2023-06-14T05:23:49.193Z,12.91
2023-06-14T05:34:13.871Z,13.69
2023-06-14T05:44:38.475Z,13.88
2023-06-14T05:55:02.873Z,13.55
2023-06-14T06:05:27.925Z,13.50
2023-06-14T06:15:52.502Z,13.88
2023-06-14T06:26:16.971Z,14.17
2023-06-14T06:36:41.721Z,14.27
2023-06-14T06:47:06.396Z,14.56
2023-06-14T06:57:33.358Z,15.00
2023-06-14T07:07:58.381Z,15.84
2023-06-14T07:18:23.621Z,16.39
2023-06-14T07:41:19.626Z,16.42
2023-06-14T07:51:45.784Z,16.77
2023-06-14T08:02:09.823Z,17.21
2023-06-14T08:12:36.154Z,17.72
2023-06-14T08:23:00.850Z,17.86
2023-06-14T08:33:24.960Z,18.19
2023-06-14T08:43:50.572Z,18.70
2023-06-14T08:54:17.127Z,19.21
2023-06-14T09:04:41.101Z,19.86
2023-06-14T09:15:07.604Z,20.28
2023-06-14T09:25:39.077Z,20.50
2023-06-14T09:36:03.973Z,20.91
2023-06-14T09:46:29.849Z,21.28
2023-06-14T09:56:54.750Z,21.59
2023-06-14T10:07:21.978Z,20.86
2023-06-14T10:17:57.065Z,20.24
2023-06-14T10:28:29.027Z,20.56
2023-06-14T10:39:07.103Z,20.79
2023-06-14T10:49:46.498Z,21.46
2023-06-14T11:00:17.564Z,21.84
2023-06-14T11:10:44.669Z,21.75
2023-06-14T11:21:10.283Z,21.88
2023-06-14T11:31:35.304Z,22.55
2023-06-14T11:42:02.653Z,23.58
2023-06-14T11:52:27.713Z,23.39
2023-06-14T12:02:57.529Z,22.92
2023-06-14T12:13:21.667Z,21.71
2023-06-14T12:23:48.967Z,21.30
2023-06-14T12:34:13.555Z,21.80
2023-06-14T12:44:42.255Z,22.33
2023-06-14T12:55:08.307Z,22.22
2023-06-14T13:05:34.681Z,21.06
2023-06-14T13:15:58.868Z,20.40
2023-06-14T13:26:23.090Z,20.32
2023-06-14T13:36:48.889Z,19.33
2023-06-14T13:47:12.918Z,18.71
2023-06-14T13:57:38.099Z,19.32
2023-06-14T14:08:03.312Z,19.93
2023-06-14T14:18:29.738Z,20.60
2023-06-14T14:29:48.475Z,21.48
2023-06-14T14:40:15.621Z,22.26
2023-06-14T14:50:39.983Z,22.45
2023-06-14T15:01:04.870Z,21.76
2023-06-14T15:11:29.281Z,21.56
2023-06-14T15:21:53.395Z,22.03
2023-06-14T15:32:17.746Z,22.82
2023-06-14T15:42:42.548Z,21.93
2023-06-14T15:53:06.904Z,21.48
2023-06-14T16:03:31.203Z,22.10
2023-06-14T16:13:57.007Z,22.32
2023-06-14T16:24:20.931Z,22.33
2023-06-14T16:34:45.568Z,22.17
2023-06-14T16:45:10.327Z,22.34
2023-06-14T16:55:36.304Z,21.69
2023-06-14T17:06:00.565Z,21.40
2023-06-14T17:16:25.101Z,21.48
2023-06-14T17:26:50.332Z,21.52
2023-06-14T17:37:14.868Z,21.00
2023-06-14T17:47:39.569Z,20.36
2023-06-14T17:58:05.251Z,20.22
2023-06-14T18:08:29.884Z,20.17
2023-06-14T18:18:55.268Z,20.54
2023-06-14T18:29:20.359Z,20.32
2023-06-14T18:39:45.535Z,20.00
2023-06-14T18:50:11.324Z,19.62
2023-06-14T19:00:36.014Z,19.24
2023-06-14T19:11:01.434Z,18.59
2023-06-14T19:21:26.154Z,18.25
2023-06-14T19:31:50.713Z,18.28
2023-06-14T19:42:15.212Z,18.23
2023-06-14T19:52:40.248Z,17.95
2023-06-14T20:03:04.418Z,17.39
2023-06-14T20:13:28.992Z,16.80
2023-06-14T20:23:53.599Z,16.49
2023-06-14T20:34:18.401Z,16.25
2023-06-14T20:44:43.704Z,16.05
2023-06-14T20:55:08.969Z,15.44
2023-06-14T21:05:34.080Z,15.29
2023-06-14T21:15:58.885Z,15.44
2023-06-14T21:26:24.291Z,15.42
2023-06-14T21:36:49.793Z,15.31
2023-06-14T21:47:15.204Z,15.02
2023-06-14T21:57:39.711Z,14.84
2023-06-14T22:08:03.956Z,14.76
2023-06-14T22:18:29.666Z,14.62
2023-06-14T22:28:54.803Z,14.61
2023-06-14T22:39:18.770Z,14.40
2023-06-14T22:49:45.867Z,14.15
2023-06-14T23:00:15.967Z,13.84
2023-06-14T23:10:41.757Z,13.67
2023-06-14T23:21:06.940Z,13.34
2023-06-14T23:31:31.073Z,13.36
2023-06-14T23:41:55.435Z,13.53
2023-06-14T23:52:20.100Z,13.53
